Time;durP1;ratioP1;P1;durP2;ratioP2;P2;SDS_P1;SDS_P2;PMS_P1;PMS_P2;Temp;Humidity;BMP_temperature;BMP_pressure;BME280_temperature;BME280_humidity;BME280_pressure;Samples;Min_cycle;Max_cycle;Signal;HPM_P1;HPM_P2
2023/03/14 00:00:00;;;;;;;3.50;1.95;;;;;;;5.85;58.05;99514.56;6299932;28;20170;-71
2023/03/14 00:03:00;;;;;;;4.38;2.50;;;;;;;5.82;58.43;99506.94;6300175;28;20094;-74
2023/03/14 00:06:03;;;;;;;2.92;2.08;;;;;;;5.83;58.49;99495.69;6298593;28;20086;-75
2023/03/14 00:09:04;;;;;;;3.05;2.08;;;;;;;5.84;58.72;99493.00;6298613;28;20044;-71
2023/03/14 00:12:07;;;;;;;6.63;2.97;;;;;;;5.84;58.83;99497.34;6299692;28;20105;-75
2023/03/14 00:15:08;;;;;;;5.13;2.90;;;;;;;5.82;58.41;99486.22;6299610;28;20513;-71
2023/03/14 00:18:09;;;;;;;3.27;2.47;;;;;;;5.80;58.84;99485.47;6299740;28;20524;-70
2023/03/14 00:21:13;;;;;;;4.93;2.47;;;;;;;5.88;58.55;99477.31;6298290;28;20052;-75
2023/03/14 00:24:14;;;;;;;3.08;1.98;;;;;;;5.88;58.27;99478.16;6299128;28;20048;-71
2023/03/14 00:27:15;;;;;;;4.78;2.65;;;;;;;5.90;58.62;99478.91;6297368;28;20071;-71
2023/03/14 00:30:16;;;;;;;2.10;1.80;;;;;;;5.89;59.02;99468.63;6299424;28;20045;-74
2023/03/14 00:33:19;;;;;;;4.78;2.60;;;;;;;5.84;58.43;99458.50;6297866;28;20049;-71
2023/03/14 00:36:20;;;;;;;4.38;2.85;;;;;;;5.78;58.42;99469.19;6299085;28;20111;-74
2023/03/14 00:39:21;;;;;;;4.33;2.40;;;;;;;5.70;59.40;99464.38;6298250;28;20036;-71
2023/03/14 00:42:22;;;;;;;4.63;2.63;;;;;;;5.69;58.89;99451.53;6298433;28;20121;-70
2023/03/14 00:45:23;;;;;;;4.35;2.13;;;;;;;5.64;59.12;99456.94;6297772;28;20429;-75
2023/03/14 00:48:24;;;;;;;4.25;2.33;;;;;;;5.63;59.70;99458.69;6299171;28;20037;-75
2023/03/14 00:51:24;;;;;;;4.32;2.50;;;;;;;5.59;59.39;99457.16;6297327;28;20036;-71
2023/03/14 00:54:25;;;;;;;4.30;2.08;;;;;;;5.65;59.54;99445.66;6298288;28;20101;-75
2023/03/14 00:57:26;;;;;;;4.45;2.50;;;;;;;5.58;59.69;99437.38;6297765;28;20051;-75
2023/03/14 01:00:28;;;;;;;4.30;2.13;;;;;;;5.55;59.71;99431.53;6297762;28;20410;-75
2023/03/14 01:03:29;;;;;;;4.75;2.42;;;;;;;5.57;59.67;99433.09;6297581;28;20037;-70
2023/03/14 01:06:30;;;;;;;4.07;2.35;;;;;;;5.49;59.43;99426.66;6297455;28;20051;-74
2023/03/14 01:09:30;;;;;;;3.13;2.10;;;;;;;5.51;59.51;99428.25;6297016;28;20084;-74
2023/03/14 01:12:32;;;;;;;5.50;2.53;;;;;;;5.47;59.65;99418.97;6298245;28;20098;-70
2023/03/14 01:15:38;;;;;;;6.38;3.08;;;;;;;5.47;60.02;99416.38;6296877;28;20041;-74
2023/03/14 01:18:48;;;;;;;3.40;2.22;;;;;;;5.45;60.05;99407.84;6296846;28;20061;-74
2023/03/14 01:21:49;;;;;;;5.13;2.40;;;;;;;5.45;59.90;99398.31;6296507;28;20540;-70
2023/03/14 01:24:50;;;;;;;4.10;2.42;;;;;;;5.44;60.04;99398.44;6296475;28;20064;-70
2023/03/14 01:27:50;;;;;;;3.50;1.35;;;;;;;5.43;59.45;99399.31;6296296;28;20067;-70
2023/03/14 01:30:51;;;;;;;4.60;2.30;;;;;;;5.43;59.83;99388.97;6298082;28;20072;-75
2023/03/14 01:33:52;;;;;;;2.92;1.77;;;;;;;5.37;60.31;99390.13;6298053;28;20048;-75
2023/03/14 01:36:53;;;;;;;3.53;1.98;;;;;;;5.38;60.47;99390.97;6297372;28;20041;-75
2023/03/14 01:39:53;;;;;;;3.78;1.83;;;;;;;5.28;60.11;99372.47;6296631;28;20060;-75
2023/03/14 01:43:13;;;;;;;3.58;2.25;;;;;;;5.30;60.38;99370.66;6296302;28;20067;-71
2023/03/14 01:46:26;;;;;;;1.88;1.67;;;;;;;5.40;60.60;99371.88;6297235;28;20052;-74
2023/03/14 01:49:32;;;;;;;3.38;2.00;;;;;;;5.40;60.15;99365.84;6297181;28;20868;-74
2023/03/14 01:52:42;;;;;;;3.65;1.75;;;;;;;5.35;60.10;99360.06;6297769;28;20123;-74
2023/03/14 01:55:42;;;;;;;3.03;1.90;;;;;;;5.39;60.39;99365.00;6296109;28;20036;-70
2023/03/14 01:58:46;;;;;;;4.47;2.42;;;;;;;5.38;60.03;99359.94;6295470;28;20044;-70
2023/03/14 02:01:50;;;;;;;4.55;2.47;;;;;;;5.37;60.89;99355.66;6295845;28;20471;-74
2023/03/14 02:04:53;;;;;;;3.13;1.63;;;;;;;5.29;60.24;99360.38;6296753;28;20045;-74
2023/03/14 02:07:58;;;;;;;3.30;2.25;;;;;;;5.31;60.56;99350.78;6297138;28;20123;-74
2023/03/14 02:10:59;;;;;;;3.92;2.05;;;;;;;5.31;60.26;99351.63;6296810;28;20037;-71
2023/03/14 02:14:01;;;;;;;2.13;1.80;;;;;;;5.28;60.44;99350.97;6297091;28;20406;-75
2023/03/14 02:17:06;;;;;;;5.47;2.65;;;;;;;5.27;60.40;99347.50;6297381;28;20040;-71
2023/03/14 02:20:35;;;;;;;2.53;1.88;;;;;;;5.22;60.81;99354.69;6296559;28;20036;-71
2023/03/14 02:24:05;;;;;;;2.90;1.85;;;;;;;5.18;60.74;99346.22;6295653;28;20041;-75
2023/03/14 02:27:14;;;;;;;8.93;2.17;;;;;;;5.23;61.11;99338.25;6295166;28;20037;-71
2023/03/14 02:30:28;;;;;;;2.45;1.42;;;;;;;5.19;61.54;99328.97;6295055;28;20457;-71
2023/03/14 02:33:31;;;;;;;7.53;2.13;;;;;;;5.29;60.52;99337.09;6295325;28;20044;-74
2023/03/14 02:36:32;;;;;;;3.65;1.63;;;;;;;5.35;60.12;99322.09;6296864;28;20041;-75
2023/03/14 02:39:39;;;;;;;1.45;1.10;;;;;;;5.50;59.94;99315.31;6295140;28;20105;-74
2023/03/14 02:42:40;;;;;;;2.67;1.50;;;;;;;5.61;59.89;99315.56;6296598;28;20410;-74
2023/03/14 02:45:46;;;;;;;3.40;1.95;;;;;;;5.74;59.56;99310.59;6296683;28;20044;-74
2023/03/14 02:48:49;;;;;;;2.30;1.02;;;;;;;5.69;59.53;99304.81;6296222;28;20561;-74
2023/03/14 02:51:50;;;;;;;4.03;1.20;;;;;;;5.77;59.29;99304.44;6295483;28;20047;-74
2023/03/14 02:54:51;;;;;;;1.42;1.17;;;;;;;5.78;58.74;99304.31;6296571;28;20045;-75
2023/03/14 02:57:53;;;;;;;2.97;1.77;;;;;;;5.75;59.19;99293.31;6295000;28;20041;-70
2023/03/14 03:00:54;;;;;;;2.70;1.17;;;;;;;5.79;59.10;99295.66;6295376;28;20040;-74
2023/03/14 03:03:55;;;;;;;2.13;1.33;;;;;;;5.79;58.90;99295.66;6295817;28;20071;-71
2023/03/14 03:06:56;;;;;;;1.42;1.13;;;;;;;5.84;58.88;99301.41;6294912;28;20376;-70
2023/03/14 03:09:57;;;;;;;5.10;1.33;;;;;;;5.95;58.56;99295.72;6295813;28;20116;-70
2023/03/14 03:12:57;;;;;;;0.98;0.90;;;;;;;5.97;58.70;99288.69;6295930;28;20048;-70
2023/03/14 03:15:58;;;;;;;2.42;1.08;;;;;;;5.95;58.41;99293.13;6294643;28;20109;-74
2023/03/14 03:18:59;;;;;;;2.47;1.30;;;;;;;6.00;58.55;99295.47;6295696;28;20040;-70
2023/03/14 03:22:01;;;;;;;2.60;1.60;;;;;;;6.03;58.33;99285.78;6295748;28;20052;-70
2023/03/14 03:25:06;;;;;;;1.90;1.70;;;;;;;6.09;57.92;99275.97;6296013;28;20471;-74
2023/03/14 03:28:07;;;;;;;1.35;1.10;;;;;;;6.12;57.72;99275.81;6294894;28;20406;-75
2023/03/14 03:31:11;;;;;;;1.35;1.00;;;;;;;6.16;58.06;99266.97;6296161;28;20036;-75
2023/03/14 03:34:13;;;;;;;2.08;1.35;;;;;;;6.16;57.94;99266.97;6294489;28;20045;-71
2023/03/14 03:37:14;;;;;;;2.55;1.10;;;;;;;6.18;58.01;99262.53;6295347;28;20045;-71
2023/03/14 03:40:20;;;;;;;1.25;1.02;;;;;;;6.14;58.26;99259.28;6294793;28;20064;-74
2023/03/14 03:43:23;;;;;;;2.53;1.08;;;;;;;6.15;57.85;99258.34;6295778;28;20045;-74
2023/03/14 03:46:27;;;;;;;4.88;1.42;;;;;;;6.14;57.84;99254.09;6295717;28;20048;-74
2023/03/14 03:49:31;;;;;;;2.40;0.95;;;;;;;6.11;57.90;99251.66;6294740;28;20483;-74
2023/03/14 03:52:32;;;;;;;1.58;1.33;;;;;;;6.13;58.38;99246.41;6295543;28;20049;-70
2023/03/14 03:55:33;;;;;;;1.60;1.30;;;;;;;6.01;58.55;99235.81;6294139;28;20540;-74
2023/03/14 03:58:34;;;;;;;1.73;1.05;;;;;;;6.00;58.68;99234.13;6295301;28;20041;-70
2023/03/14 04:01:35;;;;;;;1.63;1.10;;;;;;;5.89;59.00;99218.34;6297296;28;20482;-74
2023/03/14 04:04:37;;;;;;;5.97;1.70;;;;;;;5.97;59.18;99211.00;6299031;28;20093;-74
2023/03/14 04:07:38;;;;;;;3.75;1.48;;;;;;;5.88;59.50;99215.81;6298564;28;20040;-75
2023/03/14 04:10:41;;;;;;;3.13;1.40;;;;;;;5.93;59.19;99224.16;6298218;28;20041;-71
2023/03/14 04:13:41;;;;;;;2.10;1.20;;;;;;;5.89;59.59;99214.88;6298244;28;20036;-74
2023/03/14 04:16:45;;;;;;;3.47;1.48;;;;;;;5.91;59.27;99207.88;6299927;28;20078;-75
2023/03/14 04:19:49;;;;;;;1.90;1.33;;;;;;;5.89;59.57;99212.28;6298472;28;20044;-71
2023/03/14 04:22:50;;;;;;;6.35;2.17;;;;;;;5.88;60.09;99202.88;6298102;28;20125;-70
2023/03/14 04:25:51;;;;;;;1.13;0.90;;;;;;;5.86;59.65;99198.59;6299492;28;20495;-70
2023/03/14 04:28:52;;;;;;;1.77;1.20;;;;;;;5.90;60.08;99188.09;6298915;28;20036;-70
2023/03/14 04:31:53;;;;;;;2.95;1.13;;;;;;;5.90;60.20;99181.16;6297823;28;20458;-71
2023/03/14 04:34:54;;;;;;;1.70;0.95;;;;;;;5.95;59.79;99174.00;6297674;28;20051;-71
2023/03/14 04:37:55;;;;;;;1.25;0.90;;;;;;;5.98;59.88;99166.06;6299180;28;20047;-74
2023/03/14 04:40:55;;;;;;;1.83;0.95;;;;;;;5.98;59.35;99152.28;6298814;28;20061;-70
2023/03/14 04:43:59;;;;;;;2.70;1.30;;;;;;;6.10;59.39;99163.72;6297380;28;20495;-71
2023/03/14 04:47:00;;;;;;;1.25;1.15;;;;;;;6.14;59.50;99155.66;6298915;28;20068;-74
2023/03/14 04:50:01;;;;;;;1.75;1.00;;;;;;;6.25;58.64;99136.91;6299157;28;20044;-75
2023/03/14 04:53:02;;;;;;;1.25;1.15;;;;;;;6.39;58.54;99136.94;6297720;28;20040;-74
2023/03/14 04:56:02;;;;;;;1.42;0.85;;;;;;;6.51;58.01;99144.94;6281409;28;20457;-71
2023/03/14 04:59:04;;;;;;;1.90;1.38;;;;;;;6.57;57.69;99149.75;6298192;28;20437;-71
2023/03/14 05:02:05;;;;;;;1.27;1.13;;;;;;;6.64;57.23;99149.28;6298796;28;20121;-71
2023/03/14 05:05:06;;;;;;;1.58;1.20;;;;;;;6.72;56.90;99153.22;6298621;28;20040;-70
2023/03/14 05:08:07;;;;;;;2.40;1.10;;;;;;;6.76;57.46;99141.72;6297176;28;20116;-70
2023/03/14 05:11:10;;;;;;;1.55;1.17;;;;;;;6.73;56.97;99131.53;6297132;28;20120;-75
2023/03/14 05:14:11;;;;;;;0.88;0.70;;;;;;;6.85;56.71;99141.97;6296798;28;20044;-70
2023/03/14 05:17:14;;;;;;;2.42;1.30;;;;;;;6.75;57.11;99140.03;6296743;28;20059;-70
2023/03/14 05:20:16;;;;;;;2.63;1.08;;;;;;;6.86;56.64;99146.25;6297449;28;20483;-74
2023/03/14 05:23:17;;;;;;;2.05;1.15;;;;;;;6.90;56.54;99144.31;6297278;28;20040;-74
2023/03/14 05:26:18;;;;;;;3.25;1.40;;;;;;;6.94;56.20;99138.03;6298375;28;20040;-74
2023/03/14 05:29:18;;;;;;;1.67;0.95;;;;;;;7.01;56.62;99147.09;6297101;28;20037;-75
2023/03/14 05:32:19;;;;;;;1.30;0.98;;;;;;;6.97;56.63;99127.44;6298372;28;20498;-74
2023/03/14 05:35:20;;;;;;;1.42;0.73;;;;;;;6.96;57.00;99133.59;6296985;28;20043;-74
2023/03/14 05:38:21;;;;;;;1.48;0.90;;;;;;;7.02;56.59;99135.81;6296537;28;20049;-70
2023/03/14 05:41:22;;;;;;;0.98;0.77;;;;;;;7.03;56.81;99134.88;6297083;28;20053;-70
2023/03/14 05:44:23;;;;;;;1.15;0.82;;;;;;;7.12;56.68;99136.06;6296305;28;20040;-70
2023/03/14 05:47:25;;;;;;;1.05;0.63;;;;;;;7.23;56.77;99127.63;6297108;28;20045;-71
2023/03/14 05:50:25;;;;;;;0.83;0.83;;;;;;;7.24;56.32;99137.91;6296904;28;20373;-71
2023/03/14 05:53:26;;;;;;;1.40;0.52;;;;;;;7.39;56.20;99138.72;6297627;28;20041;-75
2023/03/14 05:56:27;;;;;;;1.55;0.98;;;;;;;7.48;56.00;99137.31;6295966;28;20506;-75
2023/03/14 05:59:28;;;;;;;1.23;0.90;;;;;;;7.51;55.98;99126.72;6296171;28;20376;-71
2023/03/14 06:02:31;;;;;;;1.38;0.90;;;;;;;7.58;55.17;99129.78;6296143;28;20119;-75
2023/03/14 06:05:31;;;;;;;0.75;0.75;;;;;;;7.71;55.16;99135.03;6296336;28;20055;-71
2023/03/14 06:08:32;;;;;;;1.98;0.90;;;;;;;7.74;55.44;99134.81;6296596;28;20045;-71
2023/03/14 06:11:33;;;;;;;3.75;1.20;;;;;;;7.80;55.32;99139.63;6297341;28;20045;-75
2023/03/14 06:14:34;;;;;;;1.55;1.08;;;;;;;7.88;55.26;99139.97;6296918;28;20048;-75
2023/03/14 06:17:35;;;;;;;1.23;0.88;;;;;;;7.92;54.42;99138.81;6279372;28;20052;-71
2023/03/14 06:20:39;;;;;;;2.25;1.30;;;;;;;7.94;54.70;99146.53;6295858;28;20142;-71
2023/03/14 06:23:39;;;;;;;1.95;1.33;;;;;;;8.02;55.13;99139.91;6295434;28;20097;-71
2023/03/14 06:26:42;;;;;;;1.92;0.73;;;;;;;7.96;55.16;99136.88;6296703;28;20124;-71
2023/03/14 06:29:43;;;;;;;2.00;1.00;;;;;;;7.96;54.88;99142.06;6294023;28;20041;-71
2023/03/14 06:32:44;;;;;;;1.75;0.80;;;;;;;7.98;55.04;99135.00;6294833;28;20044;-72
2023/03/14 06:35:45;;;;;;;4.35;1.90;;;;;;;7.99;55.07;99140.09;6296815;28;20399;-75
2023/03/14 06:38:46;;;;;;;2.15;1.25;;;;;;;8.08;54.16;99142.09;6297998;28;20045;-75
2023/03/14 06:41:47;;;;;;;1.35;1.23;;;;;;;8.05;54.21;99147.50;6297658;28;20102;-75
2023/03/14 06:44:49;;;;;;;0.70;0.63;;;;;;;8.00;54.65;99144.34;6297780;28;20499;-75
2023/03/14 06:47:49;;;;;;;1.27;0.90;;;;;;;8.06;55.16;99153.53;6296897;28;20055;-71
2023/03/14 06:50:53;;;;;;;0.80;0.60;;;;;;;8.14;54.89;99143.47;6296315;28;20045;-71
2023/03/14 06:53:53;;;;;;;1.83;0.80;;;;;;;8.12;54.62;99147.94;6295885;28;20044;-73
2023/03/14 06:56:54;;;;;;;0.95;0.80;;;;;;;8.11;54.38;99140.22;6295897;28;20402;-74
2023/03/14 06:59:56;;;;;;;1.23;0.80;;;;;;;8.20;54.67;99147.44;6296631;28;20064;-74
2023/03/14 07:02:57;;;;;;;5.50;1.20;;;;;;;8.22;53.71;99135.19;6296592;28;20037;-74
2023/03/14 07:05:57;;;;;;;2.05;1.08;;;;;;;8.36;53.55;99142.03;6296404;28;20056;-75
2023/03/14 07:09:01;;;;;;;2.25;1.00;;;;;;;8.54;53.24;99132.22;6296025;28;20515;-71
2023/03/14 07:12:03;;;;;;;2.85;1.40;;;;;;;8.54;53.54;99135.66;6294376;28;20135;-74
2023/03/14 07:15:05;;;;;;;1.13;0.70;;;;;;;8.61;53.91;99134.31;6297154;28;20115;-71
2023/03/14 07:18:05;;;;;;;1.17;0.90;;;;;;;8.60;52.39;99121.41;6294297;28;20041;-70
2023/03/14 07:21:08;;;;;;;0.80;0.60;;;;;;;8.71;52.75;99116.31;6294400;28;20075;-75
2023/03/14 07:24:09;;;;;;;2.88;1.05;;;;;;;8.74;52.09;99113.50;6296447;28;20044;-75
2023/03/14 07:27:10;;;;;;;7.88;2.90;;;;;;;8.75;52.34;99109.97;6295746;28;20479;-71
2023/03/14 07:30:12;;;;;;;1.27;0.80;;;;;;;8.90;51.17;99104.66;6294137;28;20041;-71
2023/03/14 07:33:13;;;;;;;11.57;1.48;;;;;;;8.85;51.72;99111.00;6295221;28;20040;-71
2023/03/14 07:36:14;;;;;;;1.70;1.23;;;;;;;8.98;51.20;99110.16;6298691;28;20040;-74
2023/03/14 07:39:15;;;;;;;1.13;0.80;;;;;;;9.09;51.54;99115.44;6301930;28;20508;-70
2023/03/14 07:42:16;;;;;;;1.58;1.08;;;;;;;9.02;50.63;99109.00;6299071;28;20056;-74
2023/03/14 07:45:17;;;;;;;3.60;0.68;;;;;;;8.97;51.05;99116.28;6300655;28;20071;-74
2023/03/14 07:48:18;;;;;;;1.23;1.13;;;;;;;9.05;51.23;99116.59;6301753;28;20036;-74
2023/03/14 07:51:19;;;;;;;0.85;0.80;;;;;;;9.14;51.17;99109.91;6299867;28;20047;-71
2023/03/14 07:54:20;;;;;;;2.42;1.00;;;;;;;9.21;51.32;99122.38;6298685;28;20045;-74
2023/03/14 07:57:21;;;;;;;2.03;0.60;;;;;;;9.24;50.65;99101.34;6301231;28;20040;-71
2023/03/14 08:00:22;;;;;;;1.00;0.73;;;;;;;9.41;50.94;99107.97;6298421;28;20498;-71
2023/03/14 08:03:23;;;;;;;4.80;1.48;;;;;;;9.34;50.60;99106.72;6298319;28;20196;-75
2023/03/14 08:06:23;;;;;;;1.75;1.33;;;;;;;9.42;50.59;99101.00;6301193;28;20040;-71
2023/03/14 08:09:24;;;;;;;0.75;0.73;;;;;;;9.35;50.58;99098.00;6300058;28;20139;-75
2023/03/14 08:12:25;;;;;;;3.67;1.20;;;;;;;9.47;50.04;99097.13;6299397;28;20090;-72
2023/03/14 08:15:28;;;;;;;0.68;0.68;;;;;;;9.54;49.44;99094.91;6299262;28;20402;-71
2023/03/14 08:18:28;;;;;;;;;;;;;;;9.67;50.00;99095.66;6301243;28;20483;-75
2023/03/14 08:21:31;;;;;;;1.13;0.60;;;;;;;9.82;49.03;99095.50;6298113;28;19927;-74
2023/03/14 08:24:32;;;;;;;2.83;1.30;;;;;;;9.95;48.76;99077.22;6301085;28;20051;-75
2023/03/14 08:27:33;;;;;;;2.10;1.48;;;;;;;10.14;48.25;99072.28;6300282;28;20037;-71
2023/03/14 08:30:34;;;;;;;1.20;0.80;;;;;;;10.32;48.37;99085.75;6299845;28;20045;-70
2023/03/14 08:33:35;;;;;;;0.98;0.98;;;;;;;10.39;47.90;99080.88;6299650;28;20525;-71
2023/03/14 08:36:38;;;;;;;2.13;1.10;;;;;;;10.66;47.01;99076.16;6297682;28;20037;-71
2023/03/14 08:39:38;;;;;;;1.08;0.90;;;;;;;10.58;47.43;99062.88;6298668;28;20098;-71
2023/03/14 08:42:40;;;;;;;1.20;1.10;;;;;;;10.98;46.18;99074.63;6297213;28;20074;-72
2023/03/14 08:45:40;;;;;;;0.85;0.80;;;;;;;11.04;45.53;99072.38;6298498;28;20083;-71
2023/03/14 08:48:41;;;;;;;1.98;0.60;;;;;;;11.11;43.38;99064.88;6296962;28;20045;-74
2023/03/14 08:51:42;;;;;;;3.05;0.90;;;;;;;11.22;44.09;99071.84;6298944;28;20084;-74
2023/03/14 08:54:43;;;;;;;1.08;0.73;;;;;;;11.08;43.29;99063.34;6300325;28;20399;-70
2023/03/14 08:57:45;;;;;;;1.30;0.75;;;;;;;11.28;43.77;99066.16;6292547;28;20386;-71
2023/03/14 09:00:46;;;;;;;2.38;1.00;;;;;;;11.16;43.27;99054.06;6280076;28;20052;-74
2023/03/14 09:03:50;;;;;;;2.75;1.38;;;;;;;11.22;43.49;99038.78;6272542;28;20098;-74
2023/03/14 09:06:51;;;;;;;5.95;1.17;;;;;;;11.22;42.41;99043.13;6274431;28;20041;-75
2023/03/14 09:09:52;;;;;;;1.23;0.52;;;;;;;11.34;43.08;99051.78;6275184;28;20048;-74
2023/03/14 09:12:52;;;;;;;0.75;0.50;;;;;;;11.43;42.20;99036.22;6272551;28;20437;-70
2023/03/14 09:15:57;;;;;;;0.70;0.70;;;;;;;11.62;42.70;99034.72;6273706;28;20091;-74
2023/03/14 09:18:59;;;;;;;3.42;1.52;;;;;;;11.75;41.89;99035.34;6272864;28;20052;-71
2023/03/14 09:22:00;;;;;;;4.57;1.10;;;;;;;11.62;42.95;99025.09;6271666;28;20043;-71
2023/03/14 09:25:03;;;;;;;1.05;0.88;;;;;;;11.76;43.00;99010.91;6272934;28;20040;-70
2023/03/14 09:28:04;;;;;;;0.85;0.85;;;;;;;11.85;42.83;99010.13;6271497;28;20068;-72
2023/03/14 09:31:07;;;;;;;1.23;0.98;;;;;;;11.83;43.20;99013.81;6272686;28;20037;-72
2023/03/14 09:34:08;;;;;;;0.82;0.75;;;;;;;12.02;43.34;99011.34;6274063;28;20099;-75
2023/03/14 09:37:09;;;;;;;3.92;1.05;;;;;;;12.08;42.87;99007.41;6271209;28;20424;-75
2023/03/14 09:40:16;;;;;;;1.67;1.00;;;;;;;12.06;42.45;99006.72;6272915;28;20061;-71
2023/03/14 09:43:17;;;;;;;1.05;0.90;;;;;;;12.00;42.70;99005.44;6270998;28;20403;-71
2023/03/14 09:46:18;;;;;;;2.80;1.30;;;;;;;12.13;43.65;98994.78;6272393;28;20045;-71
2023/03/14 09:49:28;;;;;;;5.47;2.50;;;;;;;12.28;43.49;98987.44;6272943;28;20446;-75
2023/03/14 09:52:37;;;;;;;5.13;1.08;;;;;;;12.20;42.44;98989.88;6271316;28;20040;-71
2023/03/14 09:55:38;;;;;;;0.85;0.75;;;;;;;12.17;42.31;98977.88;6272899;28;20045;-75
2023/03/14 09:58:42;;;;;;;1.65;1.20;;;;;;;11.92;43.31;98973.06;6271442;28;20040;-71
2023/03/14 10:01:43;;;;;;;1.42;0.98;;;;;;;12.48;42.67;98981.31;6273234;28;20091;-71
2023/03/14 10:04:46;;;;;;;6.47;1.30;;;;;;;12.96;42.18;98978.97;6269402;28;20041;-71
2023/03/14 10:07:47;;;;;;;0.63;0.63;;;;;;;13.22;41.26;98974.03;6268514;28;20041;-71
2023/03/14 10:10:48;;;;;;;2.92;1.30;;;;;;;13.48;40.90;98969.94;6270307;28;20041;-75
2023/03/14 10:14:13;;;;;;;2.25;1.33;;;;;;;14.12;39.98;98962.38;6273692;28;20048;-75
2023/03/14 10:17:15;;;;;;;1.42;0.90;;;;;;;14.55;39.42;98953.09;6273818;28;20044;-74
2023/03/14 10:20:37;;;;;;;2.13;1.02;;;;;;;14.43;39.68;98951.63;6272415;28;20089;-75
2023/03/14 10:23:38;;;;;;;2.40;1.27;;;;;;;14.87;39.37;98944.81;6272151;28;20048;-75
2023/03/14 10:26:42;;;;;;;1.57;0.73;;;;;;;15.21;40.13;98928.38;6272271;28;20483;-75
2023/03/14 10:29:58;;;;;;;4.90;1.17;;;;;;;15.15;38.35;98921.09;6273343;28;20122;-75
2023/03/14 10:33:08;;;;;;;1.67;1.00;;;;;;;15.42;39.45;98921.97;6271834;28;20554;-71
2023/03/14 10:36:26;;;;;;;1.10;1.00;;;;;;;15.42;39.40;98911.47;6271836;28;20476;-71
2023/03/14 10:39:43;;;;;;;2.55;1.67;;;;;;;15.35;38.84;98898.13;6270749;28;20076;-71
2023/03/14 10:42:46;;;;;;;2.60;1.35;;;;;;;15.27;39.41;98903.31;6270553;28;20049;-71
2023/03/14 10:46:05;;;;;;;3.80;0.90;;;;;;;15.10;38.72;98908.41;6269695;28;20048;-71
2023/03/14 10:49:06;;;;;;;0.80;0.80;;;;;;;14.91;39.45;98898.88;6304137;28;20550;-74
2023/03/14 10:52:19;;;;;;;2.17;0.80;;;;;;;15.39;39.05;98890.75;6271830;28;20044;-75
2023/03/14 10:55:20;;;;;;;6.20;1.02;;;;;;;15.55;38.95;98877.72;6271828;28;20088;-75
2023/03/14 10:58:24;;;;;;;1.42;0.95;;;;;;;15.95;38.16;98868.44;6273022;28;20044;-75
2023/03/14 11:02:02;;;;;;;1.25;1.00;;;;;;;16.43;38.33;98868.81;6273095;28;20408;-75
2023/03/14 11:05:12;;;;;;;3.60;1.45;;;;;;;16.39;37.60;98865.69;6271699;28;20037;-75
2023/03/14 11:08:31;;;;;;;2.05;1.15;;;;;;;16.56;37.59;98852.56;6271713;28;20392;-75
2023/03/14 11:11:33;;;;;;;2.80;1.27;;;;;;;16.54;37.18;98865.06;6275228;28;20041;-75
2023/03/14 11:14:39;;;;;;;1.65;1.27;;;;;;;16.81;38.12;98845.56;6276117;28;20098;-72
2023/03/14 11:18:02;;;;;;;2.55;1.38;;;;;;;17.09;37.48;98846.91;6276769;28;20037;-71
2023/03/14 11:21:42;;;;;;;1.90;1.30;;;;;;;16.89;37.43;98838.47;6276418;28;20049;-76
2023/03/14 11:25:04;;;;;;;2.17;1.00;;;;;;;16.78;37.00;98835.31;6273680;28;20450;-75
2023/03/14 11:28:21;;;;;;;2.22;1.35;;;;;;;16.94;37.58;98829.25;6277660;28;20501;-76
2023/03/14 11:31:32;;;;;;;2.13;1.20;;;;;;;16.78;36.80;98817.72;6275523;28;20476;-75
2023/03/14 11:34:42;;;;;;;2.67;1.45;;;;;;;17.10;36.39;98811.63;6276795;28;20124;-75
2023/03/14 11:37:52;;;;;;;1.20;1.00;;;;;;;17.27;36.87;98807.16;6274370;28;20052;-72
2023/03/14 11:40:55;;;;;;;3.75;1.35;;;;;;;17.17;35.73;98798.59;6274988;28;20056;-71
2023/03/14 11:43:59;;;;;;;2.22;1.20;;;;;;;17.17;35.37;98813.59;6275601;28;20483;-75
2023/03/14 11:47:20;;;;;;;1.02;0.85;;;;;;;17.84;36.53;98798.31;6274136;28;20574;-75
2023/03/14 11:50:26;;;;;;;4.65;1.00;;;;;;;17.78;36.03;98785.78;6274219;28;20059;-71
2023/03/14 11:53:55;;;;;;;3.47;1.77;;;;;;;17.55;35.66;98758.50;6275042;28;20068;-75
2023/03/14 11:57:11;;;;;;;1.50;1.08;;;;;;;17.61;35.05;98773.66;6276204;28;20503;-75
2023/03/14 12:00:19;;;;;;;1.90;1.15;;;;;;;17.74;35.60;98760.75;6277142;28;20124;-75
2023/03/14 12:03:42;;;;;;;2.08;1.23;;;;;;;17.56;35.04;98757.50;6276868;28;20037;-76
2023/03/14 12:06:50;;;;;;;2.05;1.05;;;;;;;17.77;35.28;98756.94;6275803;28;20541;-75
2023/03/14 12:09:53;;;;;;;1.63;1.10;;;;;;;17.66;35.11;98747.59;6275594;28;20041;-76
2023/03/14 12:12:54;;;;;;;1.58;1.20;;;;;;;17.81;35.08;98743.25;6274374;28;20499;-71
2023/03/14 12:15:58;;;;;;;3.92;1.30;;;;;;;17.69;35.23;98750.72;6274134;28;20037;-71
2023/03/14 12:19:22;;;;;;;1.27;0.77;;;;;;;17.66;35.30;98740.47;6273038;28;20041;-72
2023/03/14 12:22:27;;;;;;;2.83;1.30;;;;;;;17.75;35.98;98736.03;6273053;28;20076;-71
2023/03/14 12:25:32;;;;;;;1.63;1.25;;;;;;;17.80;34.98;98740.78;6273887;28;20703;-75
2023/03/14 12:28:32;;;;;;;2.63;1.30;;;;;;;18.01;35.40;98732.28;6284597;28;20051;-75
2023/03/14 12:31:42;;;;;;;0.95;0.90;;;;;;;18.06;34.55;98736.06;6273491;28;20040;-75
2023/03/14 12:34:45;;;;;;;1.50;1.02;;;;;;;17.63;35.12;98732.94;6272881;28;20048;-71
2023/03/14 12:37:48;;;;;;;1.65;1.10;;;;;;;17.63;34.94;98719.75;6274290;28;20505;-75
2023/03/14 12:41:26;;;;;;;1.50;0.85;;;;;;;17.75;35.16;98730.75;6274627;28;20064;-75
2023/03/14 12:44:30;;;;;;;1.30;0.93;;;;;;;18.08;35.49;98725.31;6274654;28;20065;-75
2023/03/14 12:47:36;;;;;;;1.40;1.00;;;;;;;18.08;35.03;98725.31;6272649;28;20056;-71
2023/03/14 12:50:52;;;;;;;7.65;1.20;;;;;;;17.39;35.50;98714.56;6272649;28;20056;-71
2023/03/14 12:53:56;;;;;;;2.05;1.23;;;;;;;17.51;36.10;98710.56;6273617;28;20048;-75
2023/03/14 12:56:59;;;;;;;3.10;1.20;;;;;;;17.57;35.87;98711.69;6274371;28;20123;-75
2023/03/14 13:00:18;;;;;;;4.75;1.30;;;;;;;17.38;35.74;98711.09;6275454;28;20045;-72
2023/03/14 13:03:26;;;;;;;2.15;1.48;;;;;;;16.84;36.05;98705.59;6273282;28;20127;-71
2023/03/14 13:06:53;;;;;;;2.63;1.00;;;;;;;16.45;36.92;98701.81;6273337;28;20403;-71
2023/03/14 13:10:17;;;;;;;1.20;1.00;;;;;;;16.31;37.56;98695.41;6271964;28;20041;-71
2023/03/14 13:13:27;;;;;;;1.85;1.05;;;;;;;16.39;38.04;98694.59;6273244;28;20105;-71
2023/03/14 13:16:28;;;;;;;1.35;1.17;;;;;;;16.56;37.82;98689.31;6271779;28;20112;-71
2023/03/14 13:19:33;;;;;;;3.05;1.60;;;;;;;16.70;37.46;98686.84;6273596;28;20128;-76
2023/03/14 13:22:36;;;;;;;2.22;1.30;;;;;;;17.00;37.97;98670.50;6273554;28;20037;-71
2023/03/14 13:25:37;;;;;;;5.13;1.30;;;;;;;17.08;37.41;98655.50;6271433;28;20091;-72
2023/03/14 13:28:38;;;;;;;1.15;1.00;;;;;;;16.89;37.44;98653.25;6273624;28;20041;-71
2023/03/14 13:31:44;;;;;;;1.25;0.90;;;;;;;17.12;38.02;98661.25;6273269;28;20044;-75
2023/03/14 13:34:47;;;;;;;4.05;1.15;;;;;;;17.18;37.71;98647.41;6271401;28;20502;-72
2023/03/14 13:37:54;;;;;;;2.00;1.30;;;;;;;17.40;37.11;98658.19;6273363;28;20512;-71
2023/03/14 13:40:59;;;;;;;1.73;0.98;;;;;;;17.26;36.90;98643.94;6272832;28;20106;-75
2023/03/14 13:44:17;;;;;;;1.13;0.90;;;;;;;17.37;37.39;98637.44;6272229;28;20037;-71
2023/03/14 13:47:20;;;;;;;1.58;1.08;;;;;;;17.23;37.83;98639.78;6273019;28;20048;-76
2023/03/14 13:50:22;;;;;;;0.88;0.80;;;;;;;17.12;37.71;98629.63;6273205;28;20110;-71
2023/03/14 13:53:23;;;;;;;1.63;1.05;;;;;;;17.15;36.75;98629.28;6272372;28;20053;-75
2023/03/14 13:56:30;;;;;;;7.13;1.33;;;;;;;17.10;37.58;98627.16;6272263;28;20446;-71
2023/03/14 13:59:35;;;;;;;1.50;1.17;;;;;;;17.05;38.50;98626.06;6271993;28;20037;-72
2023/03/14 14:02:37;;;;;;;2.10;1.25;;;;;;;16.91;38.02;98633.66;6272002;28;20040;-72
2023/03/14 14:05:41;;;;;;;3.25;1.17;;;;;;;16.90;38.30;98620.63;6271527;28;20405;-72
2023/03/14 14:08:42;;;;;;;2.08;1.25;;;;;;;16.78;37.46;98614.06;6271571;28;20044;-72
2023/03/14 14:11:42;;;;;;;1.50;1.10;;;;;;;16.65;38.05;98620.66;6271702;28;20040;-72
2023/03/14 14:14:59;;;;;;;4.03;1.55;;;;;;;16.52;37.75;98612.47;6272540;28;20083;-71
2023/03/14 14:18:12;;;;;;;1.52;1.17;;;;;;;16.41;38.05;98608.38;6270500;28;20484;-72
2023/03/14 14:21:16;;;;;;;1.92;1.20;;;;;;;16.34;38.70;98599.47;6271158;28;20098;-72
2023/03/14 14:24:17;;;;;;;6.70;1.42;;;;;;;16.46;39.54;98595.53;6271036;28;20048;-71
2023/03/14 14:27:37;;;;;;;2.08;1.20;;;;;;;16.38;40.14;98595.53;6270979;28;20065;-75
2023/03/14 14:30:40;;;;;;;3.50;1.58;;;;;;;16.40;40.39;98587.47;6272784;28;20541;-71
2023/03/14 14:33:52;;;;;;;2.72;1.13;;;;;;;16.32;40.80;98585.66;6269866;28;20068;-71